Arcadia, Oregon
Current Conditions -  °F | °C
As of 4:53 PM on Saturday 25 Oct 2014 (Local Time) from KONO Reporting Station
Broken Clouds Broken Clouds  
Wind Chill: 13°   Ceiling: 12000
Heat Index: 13°   Visibility: 10mi
Dew Point:   Wind: 0mph
Humidity: 72%   Direction: NA
Pressure: 29.77"   Gusts: NA
Location:  43.754°N, 117.202°W
Report Text: KONO 252253Z AUTO 00000KT 10SM BKN120 13/08 A2977 RMK AO2 SLP086 T01330083
Loading
Personal Weather Stations






























Interactive Weather Map
Tropical Storm Tracking
New forecast layout! Learn more

10-Day Weather Forecast

Advertisements
Track Severe Weather on mobile